sensor_id;sensor_type;location;lat;lon;timestamp;P1;durP1;ratioP1;P2;durP2;ratioP2
9276;SDS011;4676;42.678;23.244;2023-05-14T00:01:52;3.57;;;3.27;;
9276;SDS011;4676;42.678;23.244;2023-05-14T00:04:18;3.83;;;3.53;;
9276;SDS011;4676;42.678;23.244;2023-05-14T00:06:45;4.20;;;3.67;;
9276;SDS011;4676;42.678;23.244;2023-05-14T00:09:12;3.90;;;3.60;;
9276;SDS011;4676;42.678;23.244;2023-05-14T00:11:39;7.97;;;3.63;;
9276;SDS011;4676;42.678;23.244;2023-05-14T00:14:05;4.50;;;3.43;;
9276;SDS011;4676;42.678;23.244;2023-05-14T00:16:33;5.30;;;3.33;;
9276;SDS011;4676;42.678;23.244;2023-05-14T00:19:00;4.33;;;4.03;;
9276;SDS011;4676;42.678;23.244;2023-05-14T00:21:27;2.87;;;2.67;;
9276;SDS011;4676;42.678;23.244;2023-05-14T00:23:53;3.10;;;2.90;;
9276;SDS011;4676;42.678;23.244;2023-05-14T00:26:20;3.00;;;2.80;;
9276;SDS011;4676;42.678;23.244;2023-05-14T00:28:47;2.90;;;2.70;;
9276;SDS011;4676;42.678;23.244;2023-05-14T00:31:14;4.60;;;3.03;;
9276;SDS011;4676;42.678;23.244;2023-05-14T00:33:42;2.90;;;2.70;;
9276;SDS011;4676;42.678;23.244;2023-05-14T00:36:09;3.53;;;2.73;;
9276;SDS011;4676;42.678;23.244;2023-05-14T00:38:35;3.37;;;3.10;;
9276;SDS011;4676;42.678;23.244;2023-05-14T00:41:02;3.03;;;2.73;;
9276;SDS011;4676;42.678;23.244;2023-05-14T00:43:29;3.00;;;2.83;;
9276;SDS011;4676;42.678;23.244;2023-05-14T00:45:57;3.17;;;2.97;;
9276;SDS011;4676;42.678;23.244;2023-05-14T00:48:24;3.60;;;3.30;;
9276;SDS011;4676;42.678;23.244;2023-05-14T00:50:52;5.13;;;3.30;;
9276;SDS011;4676;42.678;23.244;2023-05-14T00:53:19;4.17;;;3.43;;
9276;SDS011;4676;42.678;23.244;2023-05-14T00:55:47;5.67;;;3.30;;
9276;SDS011;4676;42.678;23.244;2023-05-14T00:58:15;4.57;;;3.70;;
9276;SDS011;4676;42.678;23.244;2023-05-14T01:00:43;4.40;;;4.10;;
9276;SDS011;4676;42.678;23.244;2023-05-14T01:03:09;5.27;;;4.20;;
9276;SDS011;4676;42.678;23.244;2023-05-14T01:05:38;3.73;;;3.40;;
9276;SDS011;4676;42.678;23.244;2023-05-14T01:08:15;3.57;;;3.37;;
9276;SDS011;4676;42.678;23.244;2023-05-14T01:10:51;2.97;;;2.87;;
9276;SDS011;4676;42.678;23.244;2023-05-14T01:13:25;2.77;;;2.60;;
9276;SDS011;4676;42.678;23.244;2023-05-14T01:16:03;2.77;;;2.67;;
9276;SDS011;4676;42.678;23.244;2023-05-14T01:18:31;3.20;;;2.90;;
9276;SDS011;4676;42.678;23.244;2023-05-14T01:20:58;5.07;;;2.90;;
9276;SDS011;4676;42.678;23.244;2023-05-14T01:23:26;2.60;;;2.47;;
9276;SDS011;4676;42.678;23.244;2023-05-14T01:25:53;3.17;;;2.53;;
9276;SDS011;4676;42.678;23.244;2023-05-14T01:28:22;3.00;;;2.67;;
9276;SDS011;4676;42.678;23.244;2023-05-14T01:30:57;3.60;;;2.70;;
9276;SDS011;4676;42.678;23.244;2023-05-14T01:33:31;2.73;;;2.57;;
9276;SDS011;4676;42.678;23.244;2023-05-14T01:36:00;3.80;;;2.70;;
9276;SDS011;4676;42.678;23.244;2023-05-14T01:38:30;3.37;;;3.07;;
9276;SDS011;4676;42.678;23.244;2023-05-14T01:40:58;4.67;;;3.53;;
9276;SDS011;4676;42.678;23.244;2023-05-14T01:43:25;3.30;;;3.10;;
9276;SDS011;4676;42.678;23.244;2023-05-14T01:45:52;2.90;;;2.80;;
9276;SDS011;4676;42.678;23.244;2023-05-14T01:48:19;3.50;;;3.30;;
9276;SDS011;4676;42.678;23.244;2023-05-14T01:50:46;3.07;;;2.97;;
9276;SDS011;4676;42.678;23.244;2023-05-14T01:53:13;2.83;;;2.57;;
9276;SDS011;4676;42.678;23.244;2023-05-14T01:55:41;2.73;;;2.53;;
9276;SDS011;4676;42.678;23.244;2023-05-14T01:58:07;2.90;;;2.70;;
9276;SDS011;4676;42.678;23.244;2023-05-14T02:00:34;3.10;;;2.90;;
9276;SDS011;4676;42.678;23.244;2023-05-14T02:03:01;3.00;;;2.80;;
9276;SDS011;4676;42.678;23.244;2023-05-14T02:05:27;3.00;;;2.70;;
9276;SDS011;4676;42.678;23.244;2023-05-14T02:07:54;4.80;;;2.80;;
9276;SDS011;4676;42.678;23.244;2023-05-14T02:10:21;2.77;;;2.53;;
9276;SDS011;4676;42.678;23.244;2023-05-14T02:12:49;3.03;;;2.40;;
9276;SDS011;4676;42.678;23.244;2023-05-14T02:15:16;2.63;;;2.43;;
9276;SDS011;4676;42.678;23.244;2023-05-14T02:17:42;2.57;;;2.37;;
9276;SDS011;4676;42.678;23.244;2023-05-14T02:20:10;2.60;;;2.40;;
9276;SDS011;4676;42.678;23.244;2023-05-14T02:22:37;2.80;;;2.17;;
9276;SDS011;4676;42.678;23.244;2023-05-14T02:25:06;2.70;;;2.50;;
9276;SDS011;4676;42.678;23.244;2023-05-14T02:27:34;2.37;;;2.27;;
9276;SDS011;4676;42.678;23.244;2023-05-14T02:30:02;2.67;;;2.47;;
9276;SDS011;4676;42.678;23.244;2023-05-14T02:32:30;2.97;;;2.77;;
9276;SDS011;4676;42.678;23.244;2023-05-14T02:34:56;5.50;;;2.70;;
9276;SDS011;4676;42.678;23.244;2023-05-14T02:37:23;2.77;;;2.67;;
9276;SDS011;4676;42.678;23.244;2023-05-14T02:39:50;2.90;;;2.70;;
9276;SDS011;4676;42.678;23.244;2023-05-14T02:42:17;3.20;;;2.60;;
9276;SDS011;4676;42.678;23.244;2023-05-14T02:44:44;3.10;;;2.90;;
9276;SDS011;4676;42.678;23.244;2023-05-14T02:47:12;3.50;;;3.13;;
9276;SDS011;4676;42.678;23.244;2023-05-14T02:49:38;2.77;;;2.67;;
9276;SDS011;4676;42.678;23.244;2023-05-14T02:52:05;3.13;;;2.83;;
9276;SDS011;4676;42.678;23.244;2023-05-14T02:54:32;2.63;;;2.53;;
9276;SDS011;4676;42.678;23.244;2023-05-14T02:56:59;2.87;;;2.70;;
9276;SDS011;4676;42.678;23.244;2023-05-14T02:59:26;3.53;;;2.73;;
9276;SDS011;4676;42.678;23.244;2023-05-14T03:01:53;2.83;;;2.40;;
9276;SDS011;4676;42.678;23.244;2023-05-14T03:04:21;4.27;;;2.60;;
9276;SDS011;4676;42.678;23.244;2023-05-14T03:06:47;3.67;;;3.47;;
9276;SDS011;4676;42.678;23.244;2023-05-14T03:09:14;3.73;;;3.43;;
9276;SDS011;4676;42.678;23.244;2023-05-14T03:11:41;4.20;;;2.70;;
9276;SDS011;4676;42.678;23.244;2023-05-14T03:14:08;3.07;;;2.70;;
9276;SDS011;4676;42.678;23.244;2023-05-14T03:16:35;2.60;;;2.47;;
9276;SDS011;4676;42.678;23.244;2023-05-14T03:19:02;3.23;;;2.40;;
9276;SDS011;4676;42.678;23.244;2023-05-14T03:21:30;6.27;;;2.40;;
9276;SDS011;4676;42.678;23.244;2023-05-14T03:23:57;4.87;;;2.63;;
9276;SDS011;4676;42.678;23.244;2023-05-14T03:26:23;2.60;;;2.40;;
9276;SDS011;4676;42.678;23.244;2023-05-14T03:28:50;2.63;;;2.53;;
9276;SDS011;4676;42.678;23.244;2023-05-14T03:31:17;4.33;;;2.47;;
9276;SDS011;4676;42.678;23.244;2023-05-14T03:33:43;2.93;;;2.73;;
9276;SDS011;4676;42.678;23.244;2023-05-14T03:36:10;3.10;;;2.90;;
9276;SDS011;4676;42.678;23.244;2023-05-14T03:38:38;3.97;;;3.07;;
9276;SDS011;4676;42.678;23.244;2023-05-14T03:43:35;2.50;;;2.40;;
9276;SDS011;4676;42.678;23.244;2023-05-14T03:46:01;2.63;;;2.53;;
9276;SDS011;4676;42.678;23.244;2023-05-14T03:48:28;2.80;;;2.60;;
9276;SDS011;4676;42.678;23.244;2023-05-14T03:50:55;3.03;;;2.60;;
9276;SDS011;4676;42.678;23.244;2023-05-14T03:53:21;2.87;;;2.77;;
9276;SDS011;4676;42.678;23.244;2023-05-14T03:55:50;2.90;;;2.80;;
9276;SDS011;4676;42.678;23.244;2023-05-14T03:58:16;4.07;;;3.83;;
9276;SDS011;4676;42.678;23.244;2023-05-14T04:00:43;3.03;;;2.80;;
9276;SDS011;4676;42.678;23.244;2023-05-14T04:03:10;4.20;;;3.90;;
9276;SDS011;4676;42.678;23.244;2023-05-14T04:05:36;4.40;;;3.70;;
9276;SDS011;4676;42.678;23.244;2023-05-14T04:08:03;9.97;;;7.63;;
9276;SDS011;4676;42.678;23.244;2023-05-14T04:10:30;6.10;;;5.50;;
9276;SDS011;4676;42.678;23.244;2023-05-14T04:12:58;3.90;;;3.60;;
9276;SDS011;4676;42.678;23.244;2023-05-14T04:15:25;4.43;;;4.13;;
9276;SDS011;4676;42.678;23.244;2023-05-14T04:17:52;3.70;;;3.50;;
9276;SDS011;4676;42.678;23.244;2023-05-14T04:20:18;3.47;;;3.27;;
9276;SDS011;4676;42.678;23.244;2023-05-14T04:22:45;8.60;;;7.73;;
9276;SDS011;4676;42.678;23.244;2023-05-14T04:25:12;4.33;;;4.00;;
9276;SDS011;4676;42.678;23.244;2023-05-14T04:27:38;4.13;;;3.90;;
9276;SDS011;4676;42.678;23.244;2023-05-14T04:30:07;3.00;;;2.90;;
9276;SDS011;4676;42.678;23.244;2023-05-14T04:32:35;3.73;;;3.53;;
9276;SDS011;4676;42.678;23.244;2023-05-14T04:35:02;3.73;;;3.53;;
9276;SDS011;4676;42.678;23.244;2023-05-14T04:37:29;3.80;;;3.50;;
9276;SDS011;4676;42.678;23.244;2023-05-14T04:39:56;10.33;;;4.80;;
9276;SDS011;4676;42.678;23.244;2023-05-14T04:42:23;6.20;;;5.70;;
9276;SDS011;4676;42.678;23.244;2023-05-14T04:44:50;3.93;;;3.60;;
9276;SDS011;4676;42.678;23.244;2023-05-14T04:47:18;4.30;;;3.97;;
9276;SDS011;4676;42.678;23.244;2023-05-14T04:49:46;7.90;;;6.10;;
9276;SDS011;4676;42.678;23.244;2023-05-14T04:52:13;5.27;;;4.10;;
9276;SDS011;4676;42.678;23.244;2023-05-14T04:54:40;4.40;;;4.03;;
9276;SDS011;4676;42.678;23.244;2023-05-14T04:57:06;14.13;;;12.87;;
9276;SDS011;4676;42.678;23.244;2023-05-14T04:59:33;12.43;;;11.33;;
9276;SDS011;4676;42.678;23.244;2023-05-14T05:02:00;7.37;;;6.87;;
9276;SDS011;4676;42.678;23.244;2023-05-14T05:04:28;13.57;;;12.40;;
9276;SDS011;4676;42.678;23.244;2023-05-14T05:06:54;8.17;;;7.43;;
9276;SDS011;4676;42.678;23.244;2023-05-14T05:09:21;11.30;;;7.53;;
9276;SDS011;4676;42.678;23.244;2023-05-14T05:11:48;8.47;;;7.77;;
9276;SDS011;4676;42.678;23.244;2023-05-14T05:14:14;7.27;;;6.00;;
9276;SDS011;4676;42.678;23.244;2023-05-14T05:16:41;14.83;;;13.27;;
9276;SDS011;4676;42.678;23.244;2023-05-14T05:19:08;9.27;;;8.57;;
9276;SDS011;4676;42.678;23.244;2023-05-14T05:21:37;6.20;;;5.70;;
9276;SDS011;4676;42.678;23.244;2023-05-14T05:24:05;6.63;;;5.70;;
9276;SDS011;4676;42.678;23.244;2023-05-14T05:26:32;5.53;;;5.03;;
9276;SDS011;4676;42.678;23.244;2023-05-14T05:29:00;6.47;;;4.73;;
9276;SDS011;4676;42.678;23.244;2023-05-14T05:31:27;5.97;;;5.37;;
9276;SDS011;4676;42.678;23.244;2023-05-14T05:33:54;5.80;;;5.40;;
9276;SDS011;4676;42.678;23.244;2023-05-14T05:36:21;4.70;;;4.30;;
9276;SDS011;4676;42.678;23.244;2023-05-14T05:38:49;5.40;;;4.90;;
9276;SDS011;4676;42.678;23.244;2023-05-14T05:41:16;4.97;;;4.67;;
9276;SDS011;4676;42.678;23.244;2023-05-14T05:43:43;7.50;;;5.23;;
9276;SDS011;4676;42.678;23.244;2023-05-14T05:46:09;8.30;;;5.17;;
9276;SDS011;4676;42.678;23.244;2023-05-14T05:48:36;7.80;;;7.03;;
9276;SDS011;4676;42.678;23.244;2023-05-14T05:51:03;7.80;;;6.03;;
9276;SDS011;4676;42.678;23.244;2023-05-14T05:53:30;6.97;;;6.47;;
9276;SDS011;4676;42.678;23.244;2023-05-14T05:55:58;6.23;;;5.70;;
9276;SDS011;4676;42.678;23.244;2023-05-14T05:58:25;4.87;;;4.50;;
9276;SDS011;4676;42.678;23.244;2023-05-14T06:00:51;5.30;;;4.87;;
9276;SDS011;4676;42.678;23.244;2023-05-14T06:03:19;4.77;;;4.37;;
9276;SDS011;4676;42.678;23.244;2023-05-14T06:05:46;5.93;;;4.07;;
9276;SDS011;4676;42.678;23.244;2023-05-14T06:08:12;4.83;;;4.37;;
9276;SDS011;4676;42.678;23.244;2023-05-14T06:10:40;4.07;;;3.77;;
9276;SDS011;4676;42.678;23.244;2023-05-14T06:13:08;4.10;;;3.80;;
9276;SDS011;4676;42.678;23.244;2023-05-14T06:15:34;4.30;;;4.00;;
9276;SDS011;4676;42.678;23.244;2023-05-14T06:18:01;4.63;;;4.27;;
9276;SDS011;4676;42.678;23.244;2023-05-14T06:20:28;4.83;;;4.47;;
9276;SDS011;4676;42.678;23.244;2023-05-14T06:22:55;4.77;;;4.53;;
9276;SDS011;4676;42.678;23.244;2023-05-14T06:25:21;5.20;;;4.90;;
9276;SDS011;4676;42.678;23.244;2023-05-14T06:27:48;5.23;;;4.83;;
9276;SDS011;4676;42.678;23.244;2023-05-14T06:30:16;5.20;;;4.90;;
9276;SDS011;4676;42.678;23.244;2023-05-14T06:32:43;7.40;;;5.50;;
9276;SDS011;4676;42.678;23.244;2023-05-14T06:35:10;5.87;;;5.37;;
9276;SDS011;4676;42.678;23.244;2023-05-14T06:37:36;5.97;;;5.47;;
9276;SDS011;4676;42.678;23.244;2023-05-14T06:40:03;7.50;;;5.47;;
9276;SDS011;4676;42.678;23.244;2023-05-14T06:42:31;6.80;;;5.60;;
9276;SDS011;4676;42.678;23.244;2023-05-14T06:44:58;6.20;;;5.60;;
9276;SDS011;4676;42.678;23.244;2023-05-14T06:47:26;6.47;;;5.95;;
9276;SDS011;4676;42.678;23.244;2023-05-14T06:49:53;6.23;;;5.50;;
9276;SDS011;4676;42.678;23.244;2023-05-14T06:52:20;5.33;;;4.93;;
9276;SDS011;4676;42.678;23.244;2023-05-14T06:54:47;5.57;;;5.17;;
9276;SDS011;4676;42.678;23.244;2023-05-14T06:57:14;5.97;;;5.57;;
9276;SDS011;4676;42.678;23.244;2023-05-14T06:59:40;5.87;;;5.47;;
9276;SDS011;4676;42.678;23.244;2023-05-14T07:02:07;6.73;;;5.70;;
9276;SDS011;4676;42.678;23.244;2023-05-14T07:04:35;8.60;;;6.40;;
9276;SDS011;4676;42.678;23.244;2023-05-14T07:07:02;6.30;;;5.90;;
9276;SDS011;4676;42.678;23.244;2023-05-14T07:09:29;6.07;;;5.67;;
9276;SDS011;4676;42.678;23.244;2023-05-14T07:11:56;7.00;;;6.30;;
9276;SDS011;4676;42.678;23.244;2023-05-14T07:14:23;6.67;;;6.03;;
9276;SDS011;4676;42.678;23.244;2023-05-14T07:16:49;5.90;;;5.40;;
9276;SDS011;4676;42.678;23.244;2023-05-14T07:19:16;8.63;;;5.50;;
9276;SDS011;4676;42.678;23.244;2023-05-14T07:21:44;5.80;;;5.30;;
9276;SDS011;4676;42.678;23.244;2023-05-14T07:24:11;10.83;;;5.80;;
9276;SDS011;4676;42.678;23.244;2023-05-14T07:26:37;6.47;;;5.90;;
9276;SDS011;4676;42.678;23.244;2023-05-14T07:29:04;5.97;;;5.57;;
9276;SDS011;4676;42.678;23.244;2023-05-14T07:31:31;6.10;;;5.47;;
9276;SDS011;4676;42.678;23.244;2023-05-14T07:33:58;5.80;;;5.40;;
9276;SDS011;4676;42.678;23.244;2023-05-14T07:36:24;7.07;;;6.47;;
9276;SDS011;4676;42.678;23.244;2023-05-14T07:38:52;6.93;;;6.33;;
9276;SDS011;4676;42.678;23.244;2023-05-14T07:41:19;7.40;;;5.57;;
9276;SDS011;4676;42.678;23.244;2023-05-14T07:43:46;5.97;;;5.57;;
9276;SDS011;4676;42.678;23.244;2023-05-14T07:46:13;6.93;;;6.37;;
9276;SDS011;4676;42.678;23.244;2023-05-14T07:48:40;6.80;;;6.40;;
9276;SDS011;4676;42.678;23.244;2023-05-14T07:51:07;6.30;;;5.53;;
9276;SDS011;4676;42.678;23.244;2023-05-14T07:53:33;7.20;;;6.60;;
9276;SDS011;4676;42.678;23.244;2023-05-14T07:56:02;8.10;;;6.20;;
9276;SDS011;4676;42.678;23.244;2023-05-14T07:58:28;6.83;;;6.20;;
9276;SDS011;4676;42.678;23.244;2023-05-14T08:00:55;6.50;;;6.00;;
9276;SDS011;4676;42.678;23.244;2023-05-14T08:03:22;7.50;;;6.83;;
9276;SDS011;4676;42.678;23.244;2023-05-14T08:05:49;7.07;;;6.57;;
9276;SDS011;4676;42.678;23.244;2023-05-14T08:08:16;6.13;;;5.60;;
9276;SDS011;4676;42.678;23.244;2023-05-14T08:10:43;6.77;;;6.17;;
9276;SDS011;4676;42.678;23.244;2023-05-14T08:13:11;6.00;;;5.60;;
9276;SDS011;4676;42.678;23.244;2023-05-14T08:15:38;8.77;;;7.17;;
9276;SDS011;4676;42.678;23.244;2023-05-14T08:18:04;6.47;;;5.90;;
9276;SDS011;4676;42.678;23.244;2023-05-14T08:20:31;7.37;;;6.53;;
9276;SDS011;4676;42.678;23.244;2023-05-14T08:22:58;7.33;;;6.70;;
9276;SDS011;4676;42.678;23.244;2023-05-14T08:25:25;7.27;;;6.60;;
9276;SDS011;4676;42.678;23.244;2023-05-14T08:27:52;8.93;;;6.57;;
9276;SDS011;4676;42.678;23.244;2023-05-14T08:30:20;7.27;;;6.53;;
9276;SDS011;4676;42.678;23.244;2023-05-14T08:32:47;6.10;;;5.60;;
9276;SDS011;4676;42.678;23.244;2023-05-14T08:35:14;7.57;;;6.87;;
9276;SDS011;4676;42.678;23.244;2023-05-14T08:37:43;33.97;;;18.97;;
9276;SDS011;4676;42.678;23.244;2023-05-14T08:40:11;13.80;;;10.13;;
9276;SDS011;4676;42.678;23.244;2023-05-14T08:42:38;12.77;;;9.80;;
9276;SDS011;4676;42.678;23.244;2023-05-14T08:45:06;10.43;;;9.38;;
9276;SDS011;4676;42.678;23.244;2023-05-14T08:47:40;18.50;;;11.13;;
9276;SDS011;4676;42.678;23.244;2023-05-14T08:50:08;16.30;;;9.43;;
9276;SDS011;4676;42.678;23.244;2023-05-14T08:52:35;16.37;;;10.23;;
9276;SDS011;4676;42.678;23.244;2023-05-14T08:55:03;25.30;;;13.30;;
9276;SDS011;4676;42.678;23.244;2023-05-14T08:57:31;26.77;;;16.03;;
9276;SDS011;4676;42.678;23.244;2023-05-14T08:59:58;14.40;;;10.17;;
9276;SDS011;4676;42.678;23.244;2023-05-14T09:02:27;9.00;;;8.10;;
9276;SDS011;4676;42.678;23.244;2023-05-14T09:04:57;32.67;;;18.47;;
9276;SDS011;4676;42.678;23.244;2023-05-14T09:07:25;19.60;;;10.67;;
9276;SDS011;4676;42.678;23.244;2023-05-14T09:09:52;14.30;;;9.40;;
9276;SDS011;4676;42.678;23.244;2023-05-14T09:12:19;43.00;;;18.37;;
9276;SDS011;4676;42.678;23.244;2023-05-14T09:14:47;36.70;;;15.83;;
9276;SDS011;4676;42.678;23.244;2023-05-14T09:17:14;21.77;;;11.27;;
9276;SDS011;4676;42.678;23.244;2023-05-14T09:19:42;7.93;;;6.77;;
9276;SDS011;4676;42.678;23.244;2023-05-14T09:22:11;8.60;;;7.80;;
9276;SDS011;4676;42.678;23.244;2023-05-14T09:24:39;6.67;;;6.17;;
9276;SDS011;4676;42.678;23.244;2023-05-14T09:27:06;6.80;;;6.30;;
9276;SDS011;4676;42.678;23.244;2023-05-14T09:29:34;7.03;;;6.33;;
9276;SDS011;4676;42.678;23.244;2023-05-14T09:32:01;8.03;;;7.33;;
9276;SDS011;4676;42.678;23.244;2023-05-14T09:34:32;7.17;;;6.50;;
9276;SDS011;4676;42.678;23.244;2023-05-14T09:37:02;14.30;;;11.17;;
9276;SDS011;4676;42.678;23.244;2023-05-14T09:39:32;9.33;;;8.53;;
9276;SDS011;4676;42.678;23.244;2023-05-14T09:42:00;7.07;;;6.47;;
9276;SDS011;4676;42.678;23.244;2023-05-14T09:44:27;6.97;;;6.40;;
9276;SDS011;4676;42.678;23.244;2023-05-14T09:46:54;7.67;;;6.73;;
9276;SDS011;4676;42.678;23.244;2023-05-14T09:49:21;6.97;;;6.40;;
9276;SDS011;4676;42.678;23.244;2023-05-14T09:51:48;6.93;;;6.43;;
9276;SDS011;4676;42.678;23.244;2023-05-14T09:54:15;9.23;;;8.40;;
9276;SDS011;4676;42.678;23.244;2023-05-14T09:56:44;6.60;;;6.10;;
9276;SDS011;4676;42.678;23.244;2023-05-14T09:59:10;7.63;;;6.93;;
9276;SDS011;4676;42.678;23.244;2023-05-14T10:01:37;6.70;;;6.30;;
9276;SDS011;4676;42.678;23.244;2023-05-14T10:04:05;6.50;;;6.00;;
9276;SDS011;4676;42.678;23.244;2023-05-14T10:06:34;6.37;;;5.87;;
9276;SDS011;4676;42.678;23.244;2023-05-14T10:09:03;6.33;;;5.93;;
9276;SDS011;4676;42.678;23.244;2023-05-14T10:11:34;7.57;;;6.87;;
9276;SDS011;4676;42.678;23.244;2023-05-14T10:14:06;7.67;;;7.00;;
9276;SDS011;4676;42.678;23.244;2023-05-14T10:16:36;7.33;;;6.73;;
9276;SDS011;4676;42.678;23.244;2023-05-14T10:19:07;7.43;;;6.73;;
9276;SDS011;4676;42.678;23.244;2023-05-14T10:21:35;7.27;;;6.67;;
9276;SDS011;4676;42.678;23.244;2023-05-14T10:24:03;7.10;;;6.50;;
9276;SDS011;4676;42.678;23.244;2023-05-14T10:26:31;7.67;;;7.03;;
9276;SDS011;4676;42.678;23.244;2023-05-14T10:28:58;7.73;;;6.73;;
9276;SDS011;4676;42.678;23.244;2023-05-14T10:36:57;8.13;;;7.23;;
9276;SDS011;4676;42.678;23.244;2023-05-14T10:39:38;9.73;;;7.50;;
9276;SDS011;4676;42.678;23.244;2023-05-14T10:42:09;8.47;;;7.87;;
9276;SDS011;4676;42.678;23.244;2023-05-14T10:44:40;12.07;;;8.60;;
9276;SDS011;4676;42.678;23.244;2023-05-14T10:47:14;5.40;;;5.00;;
9276;SDS011;4676;42.678;23.244;2023-05-14T10:49:42;6.03;;;5.60;;
9276;SDS011;4676;42.678;23.244;2023-05-14T10:52:09;5.60;;;5.27;;
9276;SDS011;4676;42.678;23.244;2023-05-14T10:54:37;5.77;;;5.37;;
9276;SDS011;4676;42.678;23.244;2023-05-14T10:57:08;5.57;;;5.13;;
9276;SDS011;4676;42.678;23.244;2023-05-14T10:59:39;5.87;;;5.57;;
9276;SDS011;4676;42.678;23.244;2023-05-14T11:02:18;6.83;;;6.37;;
9276;SDS011;4676;42.678;23.244;2023-05-14T11:04:56;12.87;;;8.10;;
9276;SDS011;4676;42.678;23.244;2023-05-14T11:07:26;8.43;;;7.70;;
9276;SDS011;4676;42.678;23.244;2023-05-14T11:09:56;10.37;;;9.40;;
9276;SDS011;4676;42.678;23.244;2023-05-14T11:12:25;17.13;;;11.50;;
9276;SDS011;4676;42.678;23.244;2023-05-14T11:14:53;17.40;;;13.30;;
9276;SDS011;4676;42.678;23.244;2023-05-14T11:17:23;23.87;;;14.90;;
9276;SDS011;4676;42.678;23.244;2023-05-14T11:19:50;12.47;;;10.97;;
9276;SDS011;4676;42.678;23.244;2023-05-14T11:22:17;11.83;;;10.67;;
9276;SDS011;4676;42.678;23.244;2023-05-14T11:24:43;27.23;;;14.23;;
9276;SDS011;4676;42.678;23.244;2023-05-14T11:27:10;90.40;;;31.63;;
9276;SDS011;4676;42.678;23.244;2023-05-14T11:29:37;147.97;;;46.60;;
9276;SDS011;4676;42.678;23.244;2023-05-14T11:32:04;40.63;;;21.50;;
9276;SDS011;4676;42.678;23.244;2023-05-14T11:34:33;21.87;;;17.33;;
9276;SDS011;4676;42.678;23.244;2023-05-14T11:37:01;15.50;;;13.67;;
9276;SDS011;4676;42.678;23.244;2023-05-14T11:39:29;15.70;;;12.80;;
9276;SDS011;4676;42.678;23.244;2023-05-14T11:41:57;10.60;;;9.60;;
9276;SDS011;4676;42.678;23.244;2023-05-14T11:44:24;11.03;;;9.50;;
9276;SDS011;4676;42.678;23.244;2023-05-14T11:46:54;10.83;;;9.83;;
9276;SDS011;4676;42.678;23.244;2023-05-14T11:49:21;19.90;;;13.13;;
9276;SDS011;4676;42.678;23.244;2023-05-14T11:51:50;39.70;;;19.57;;
9276;SDS011;4676;42.678;23.244;2023-05-14T11:54:24;12.97;;;10.53;;
9276;SDS011;4676;42.678;23.244;2023-05-14T11:56:51;11.33;;;8.90;;
9276;SDS011;4676;42.678;23.244;2023-05-14T11:59:19;10.27;;;9.37;;
9276;SDS011;4676;42.678;23.244;2023-05-14T12:01:46;10.73;;;9.10;;
9276;SDS011;4676;42.678;23.244;2023-05-14T12:04:13;9.63;;;8.83;;
9276;SDS011;4676;42.678;23.244;2023-05-14T12:06:40;9.50;;;8.80;;
9276;SDS011;4676;42.678;23.244;2023-05-14T12:09:08;10.30;;;9.00;;
9276;SDS011;4676;42.678;23.244;2023-05-14T12:11:40;11.90;;;9.30;;
9276;SDS011;4676;42.678;23.244;2023-05-14T12:14:10;10.67;;;8.53;;
9276;SDS011;4676;42.678;23.244;2023-05-14T12:16:38;7.93;;;7.43;;
9276;SDS011;4676;42.678;23.244;2023-05-14T12:19:07;8.23;;;7.60;;
9276;SDS011;4676;42.678;23.244;2023-05-14T12:21:35;7.90;;;7.33;;
9276;SDS011;4676;42.678;23.244;2023-05-14T12:24:01;8.40;;;7.80;;
9276;SDS011;4676;42.678;23.244;2023-05-14T12:26:32;8.60;;;7.77;;
9276;SDS011;4676;42.678;23.244;2023-05-14T12:28:59;8.70;;;8.10;;
9276;SDS011;4676;42.678;23.244;2023-05-14T12:31:27;9.00;;;8.20;;
9276;SDS011;4676;42.678;23.244;2023-05-14T12:36:24;9.20;;;8.33;;
9276;SDS011;4676;42.678;23.244;2023-05-14T12:38:56;12.37;;;8.70;;
9276;SDS011;4676;42.678;23.244;2023-05-14T12:41:25;8.03;;;7.53;;
9276;SDS011;4676;42.678;23.244;2023-05-14T12:43:53;8.23;;;7.50;;
9276;SDS011;4676;42.678;23.244;2023-05-14T12:46:20;9.73;;;8.83;;
9276;SDS011;4676;42.678;23.244;2023-05-14T12:48:47;8.57;;;7.83;;
9276;SDS011;4676;42.678;23.244;2023-05-14T12:51:14;8.90;;;8.10;;
9276;SDS011;4676;42.678;23.244;2023-05-14T12:53:40;8.93;;;8.23;;
9276;SDS011;4676;42.678;23.244;2023-05-14T12:56:07;9.17;;;8.37;;
9276;SDS011;4676;42.678;23.244;2023-05-14T12:58:34;8.43;;;7.63;;
9276;SDS011;4676;42.678;23.244;2023-05-14T13:01:03;9.13;;;8.37;;
9276;SDS011;4676;42.678;23.244;2023-05-14T13:03:30;14.20;;;10.87;;
9276;SDS011;4676;42.678;23.244;2023-05-14T13:05:57;13.33;;;11.07;;
9276;SDS011;4676;42.678;23.244;2023-05-14T13:08:27;15.13;;;10.63;;
9276;SDS011;4676;42.678;23.244;2023-05-14T13:10:54;11.27;;;9.93;;
9276;SDS011;4676;42.678;23.244;2023-05-14T13:13:21;19.77;;;13.73;;
9276;SDS011;4676;42.678;23.244;2023-05-14T13:15:48;14.13;;;11.70;;
9276;SDS011;4676;42.678;23.244;2023-05-14T13:18:16;18.67;;;11.23;;
9276;SDS011;4676;42.678;23.244;2023-05-14T13:20:44;23.23;;;14.27;;
9276;SDS011;4676;42.678;23.244;2023-05-14T13:23:12;23.07;;;14.43;;
9276;SDS011;4676;42.678;23.244;2023-05-14T13:25:39;9.73;;;8.73;;
9276;SDS011;4676;42.678;23.244;2023-05-14T13:28:05;11.87;;;9.40;;
9276;SDS011;4676;42.678;23.244;2023-05-14T13:30:32;15.70;;;12.03;;
9276;SDS011;4676;42.678;23.244;2023-05-14T13:32:59;13.73;;;10.53;;
9276;SDS011;4676;42.678;23.244;2023-05-14T13:35:27;10.73;;;9.37;;
9276;SDS011;4676;42.678;23.244;2023-05-14T13:37:53;37.23;;;17.30;;
9276;SDS011;4676;42.678;23.244;2023-05-14T13:40:20;15.20;;;11.50;;
9276;SDS011;4676;42.678;23.244;2023-05-14T13:42:47;28.00;;;14.63;;
9276;SDS011;4676;42.678;23.244;2023-05-14T13:45:14;22.03;;;14.60;;
9276;SDS011;4676;42.678;23.244;2023-05-14T13:47:40;11.27;;;10.20;;
9276;SDS011;4676;42.678;23.244;2023-05-14T13:50:07;9.83;;;9.03;;
9276;SDS011;4676;42.678;23.244;2023-05-14T13:52:36;10.10;;;9.10;;
9276;SDS011;4676;42.678;23.244;2023-05-14T13:55:03;10.50;;;9.50;;
9276;SDS011;4676;42.678;23.244;2023-05-14T13:57:30;10.17;;;9.17;;
9276;SDS011;4676;42.678;23.244;2023-05-14T13:59:57;12.77;;;11.53;;
9276;SDS011;4676;42.678;23.244;2023-05-14T14:02:24;11.07;;;10.07;;
9276;SDS011;4676;42.678;23.244;2023-05-14T14:04:50;10.90;;;10.00;;
9276;SDS011;4676;42.678;23.244;2023-05-14T14:07:17;11.13;;;10.03;;
9276;SDS011;4676;42.678;23.244;2023-05-14T14:09:46;9.83;;;8.83;;
9276;SDS011;4676;42.678;23.244;2023-05-14T14:12:13;9.63;;;8.77;;
9276;SDS011;4676;42.678;23.244;2023-05-14T14:14:39;9.17;;;8.47;;
9276;SDS011;4676;42.678;23.244;2023-05-14T14:17:06;8.80;;;8.00;;
9276;SDS011;4676;42.678;23.244;2023-05-14T14:19:33;9.77;;;9.00;;
9276;SDS011;4676;42.678;23.244;2023-05-14T14:21:59;10.90;;;9.93;;
9276;SDS011;4676;42.678;23.244;2023-05-14T14:24:26;11.10;;;9.73;;
9276;SDS011;4676;42.678;23.244;2023-05-14T14:26:54;9.80;;;8.87;;
9276;SDS011;4676;42.678;23.244;2023-05-14T14:29:21;14.57;;;13.03;;
9276;SDS011;4676;42.678;23.244;2023-05-14T14:31:48;11.27;;;9.87;;
9276;SDS011;4676;42.678;23.244;2023-05-14T14:34:14;10.80;;;9.70;;
9276;SDS011;4676;42.678;23.244;2023-05-14T14:36:41;17.33;;;14.20;;
9276;SDS011;4676;42.678;23.244;2023-05-14T14:39:08;10.67;;;9.67;;
9276;SDS011;4676;42.678;23.244;2023-05-14T14:41:34;10.50;;;9.50;;
9276;SDS011;4676;42.678;23.244;2023-05-14T14:44:03;11.00;;;9.73;;
9276;SDS011;4676;42.678;23.244;2023-05-14T14:46:30;11.37;;;10.27;;
9276;SDS011;4676;42.678;23.244;2023-05-14T14:48:57;10.73;;;9.63;;
9276;SDS011;4676;42.678;23.244;2023-05-14T14:51:23;10.90;;;9.90;;
9276;SDS011;4676;42.678;23.244;2023-05-14T14:53:50;10.33;;;9.30;;
9276;SDS011;4676;42.678;23.244;2023-05-14T14:56:17;12.80;;;10.80;;
9276;SDS011;4676;42.678;23.244;2023-05-14T14:58:43;11.53;;;10.27;;
9276;SDS011;4676;42.678;23.244;2023-05-14T15:01:12;11.07;;;10.10;;
9276;SDS011;4676;42.678;23.244;2023-05-14T15:03:38;12.83;;;10.50;;
9276;SDS011;4676;42.678;23.244;2023-05-14T15:06:05;12.20;;;10.97;;
9276;SDS011;4676;42.678;23.244;2023-05-14T15:08:32;13.00;;;9.93;;